sensor_id;sensor_type;location;lat;lon;timestamp;P1;durP1;ratioP1;P2;durP2;ratioP2
79005;SDS011;69202;45.498;-73.582;2023-07-31T00:02:00;5.38;;;3.13;;
79005;SDS011;69202;45.498;-73.582;2023-07-31T00:04:26;4.18;;;3.08;;
79005;SDS011;69202;45.498;-73.582;2023-07-31T00:06:55;6.18;;;3.22;;
79005;SDS011;69202;45.498;-73.582;2023-07-31T00:09:25;3.25;;;2.90;;
79005;SDS011;69202;45.498;-73.582;2023-07-31T00:11:54;3.25;;;2.85;;
79005;SDS011;69202;45.498;-73.582;2023-07-31T00:14:20;5.57;;;3.67;;
79005;SDS011;69202;45.498;-73.582;2023-07-31T00:16:46;5.40;;;3.50;;
79005;SDS011;69202;45.498;-73.582;2023-07-31T00:19:11;4.25;;;2.97;;
79005;SDS011;69202;45.498;-73.582;2023-07-31T00:21:37;4.22;;;2.38;;
79005;SDS011;69202;45.498;-73.582;2023-07-31T00:24:03;3.05;;;2.72;;
79005;SDS011;69202;45.498;-73.582;2023-07-31T00:26:29;3.10;;;2.65;;
79005;SDS011;69202;45.498;-73.582;2023-07-31T00:28:55;2.70;;;2.15;;
79005;SDS011;69202;45.498;-73.582;2023-07-31T00:31:21;4.72;;;3.05;;
79005;SDS011;69202;45.498;-73.582;2023-07-31T00:33:47;3.53;;;2.38;;
79005;SDS011;69202;45.498;-73.582;2023-07-31T00:36:14;3.75;;;2.33;;
79005;SDS011;69202;45.498;-73.582;2023-07-31T00:38:40;3.15;;;2.40;;
79005;SDS011;69202;45.498;-73.582;2023-07-31T00:41:06;3.65;;;2.88;;
79005;SDS011;69202;45.498;-73.582;2023-07-31T00:43:32;2.65;;;2.20;;
79005;SDS011;69202;45.498;-73.582;2023-07-31T00:45:58;3.40;;;2.40;;
79005;SDS011;69202;45.498;-73.582;2023-07-31T00:48:24;2.88;;;2.40;;
79005;SDS011;69202;45.498;-73.582;2023-07-31T00:50:53;3.15;;;2.47;;
79005;SDS011;69202;45.498;-73.582;2023-07-31T00:53:20;3.10;;;2.50;;
79005;SDS011;69202;45.498;-73.582;2023-07-31T00:55:46;3.00;;;2.40;;
79005;SDS011;69202;45.498;-73.582;2023-07-31T00:58:12;2.60;;;1.92;;
79005;SDS011;69202;45.498;-73.582;2023-07-31T01:00:38;3.45;;;2.58;;
79005;SDS011;69202;45.498;-73.582;2023-07-31T01:03:04;3.05;;;2.25;;
79005;SDS011;69202;45.498;-73.582;2023-07-31T01:05:39;2.97;;;2.50;;
79005;SDS011;69202;45.498;-73.582;2023-07-31T01:11:29;2.33;;;2.00;;
79005;SDS011;69202;45.498;-73.582;2023-07-31T01:14:00;2.28;;;2.00;;
79005;SDS011;69202;45.498;-73.582;2023-07-31T01:16:26;2.72;;;2.22;;
79005;SDS011;69202;45.498;-73.582;2023-07-31T01:18:52;1.98;;;1.70;;
79005;SDS011;69202;45.498;-73.582;2023-07-31T01:21:21;2.95;;;2.13;;
79005;SDS011;69202;45.498;-73.582;2023-07-31T01:26:36;2.33;;;2.13;;
79005;SDS011;69202;45.498;-73.582;2023-07-31T01:29:38;2.15;;;1.70;;
79005;SDS011;69202;45.498;-73.582;2023-07-31T01:32:04;2.58;;;2.10;;
79005;SDS011;69202;45.498;-73.582;2023-07-31T01:34:34;2.47;;;2.20;;
79005;SDS011;69202;45.498;-73.582;2023-07-31T01:37:02;3.83;;;2.40;;
79005;SDS011;69202;45.498;-73.582;2023-07-31T01:39:28;2.70;;;2.20;;
79005;SDS011;69202;45.498;-73.582;2023-07-31T01:41:54;3.05;;;2.67;;
79005;SDS011;69202;45.498;-73.582;2023-07-31T01:44:20;3.42;;;2.58;;
79005;SDS011;69202;45.498;-73.582;2023-07-31T01:46:46;3.00;;;2.50;;
79005;SDS011;69202;45.498;-73.582;2023-07-31T01:49:12;2.80;;;2.05;;
79005;SDS011;69202;45.498;-73.582;2023-07-31T01:51:38;2.92;;;2.40;;
79005;SDS011;69202;45.498;-73.582;2023-07-31T01:54:04;2.60;;;2.40;;
79005;SDS011;69202;45.498;-73.582;2023-07-31T01:56:30;2.60;;;2.40;;
79005;SDS011;69202;45.498;-73.582;2023-07-31T01:58:56;2.97;;;2.42;;
79005;SDS011;69202;45.498;-73.582;2023-07-31T02:01:22;2.67;;;2.15;;
79005;SDS011;69202;45.498;-73.582;2023-07-31T02:03:48;2.65;;;2.03;;
79005;SDS011;69202;45.498;-73.582;2023-07-31T02:06:14;3.13;;;2.55;;
79005;SDS011;69202;45.498;-73.582;2023-07-31T02:08:40;3.13;;;2.58;;
79005;SDS011;69202;45.498;-73.582;2023-07-31T02:11:08;3.40;;;2.10;;
79005;SDS011;69202;45.498;-73.582;2023-07-31T02:13:35;3.38;;;2.60;;
79005;SDS011;69202;45.498;-73.582;2023-07-31T02:16:00;3.03;;;2.17;;
79005;SDS011;69202;45.498;-73.582;2023-07-31T02:18:26;3.22;;;2.53;;
79005;SDS011;69202;45.498;-73.582;2023-07-31T02:20:52;2.15;;;1.95;;
79005;SDS011;69202;45.498;-73.582;2023-07-31T02:23:19;2.55;;;2.30;;
79005;SDS011;69202;45.498;-73.582;2023-07-31T02:25:45;2.75;;;2.50;;
79005;SDS011;69202;45.498;-73.582;2023-07-31T02:28:11;3.33;;;2.55;;
79005;SDS011;69202;45.498;-73.582;2023-07-31T02:30:38;3.85;;;2.15;;
79005;SDS011;69202;45.498;-73.582;2023-07-31T02:33:09;3.00;;;2.20;;
79005;SDS011;69202;45.498;-73.582;2023-07-31T02:35:35;3.25;;;2.30;;
79005;SDS011;69202;45.498;-73.582;2023-07-31T02:38:03;2.80;;;2.38;;
79005;SDS011;69202;45.498;-73.582;2023-07-31T02:40:30;2.53;;;2.33;;
79005;SDS011;69202;45.498;-73.582;2023-07-31T02:42:56;2.58;;;2.38;;
79005;SDS011;69202;45.498;-73.582;2023-07-31T02:45:21;2.33;;;2.13;;
79005;SDS011;69202;45.498;-73.582;2023-07-31T02:47:47;2.38;;;2.17;;
79005;SDS011;69202;45.498;-73.582;2023-07-31T02:50:13;3.45;;;2.10;;
79005;SDS011;69202;45.498;-73.582;2023-07-31T02:52:39;2.13;;;1.80;;
79005;SDS011;69202;45.498;-73.582;2023-07-31T02:55:05;2.65;;;2.35;;
79005;SDS011;69202;45.498;-73.582;2023-07-31T02:57:32;2.20;;;2.00;;
79005;SDS011;69202;45.498;-73.582;2023-07-31T02:59:57;2.95;;;2.38;;
79005;SDS011;69202;45.498;-73.582;2023-07-31T03:02:23;2.53;;;1.98;;
79005;SDS011;69202;45.498;-73.582;2023-07-31T03:04:49;3.05;;;2.38;;
79005;SDS011;69202;45.498;-73.582;2023-07-31T03:07:15;2.20;;;1.90;;
79005;SDS011;69202;45.498;-73.582;2023-07-31T03:09:41;2.53;;;2.28;;
79005;SDS011;69202;45.498;-73.582;2023-07-31T03:12:07;2.60;;;2.08;;
79005;SDS011;69202;45.498;-73.582;2023-07-31T03:14:34;2.70;;;2.30;;
79005;SDS011;69202;45.498;-73.582;2023-07-31T03:16:59;4.88;;;2.78;;
79005;SDS011;69202;45.498;-73.582;2023-07-31T03:19:25;3.22;;;2.92;;
79005;SDS011;69202;45.498;-73.582;2023-07-31T03:21:51;5.63;;;3.67;;
79005;SDS011;69202;45.498;-73.582;2023-07-31T03:24:17;3.35;;;2.85;;
79005;SDS011;69202;45.498;-73.582;2023-07-31T03:26:43;3.28;;;2.50;;
79005;SDS011;69202;45.498;-73.582;2023-07-31T03:29:09;3.58;;;2.60;;
79005;SDS011;69202;45.498;-73.582;2023-07-31T03:31:35;3.25;;;2.92;;
79005;SDS011;69202;45.498;-73.582;2023-07-31T03:34:01;4.60;;;3.42;;
79005;SDS011;69202;45.498;-73.582;2023-07-31T03:36:27;3.53;;;2.65;;
79005;SDS011;69202;45.498;-73.582;2023-07-31T03:38:53;2.78;;;2.47;;
79005;SDS011;69202;45.498;-73.582;2023-07-31T03:41:19;8.68;;;4.15;;
79005;SDS011;69202;45.498;-73.582;2023-07-31T03:43:49;4.22;;;2.90;;
79005;SDS011;69202;45.498;-73.582;2023-07-31T03:46:21;5.55;;;3.00;;
79005;SDS011;69202;45.498;-73.582;2023-07-31T03:48:48;10.02;;;4.18;;
79005;SDS011;69202;45.498;-73.582;2023-07-31T03:51:14;4.35;;;2.97;;
79005;SDS011;69202;45.498;-73.582;2023-07-31T03:53:40;4.43;;;2.85;;
79005;SDS011;69202;45.498;-73.582;2023-07-31T03:56:06;4.18;;;2.90;;
79005;SDS011;69202;45.498;-73.582;2023-07-31T03:58:32;5.68;;;2.88;;
79005;SDS011;69202;45.498;-73.582;2023-07-31T04:00:58;3.90;;;2.70;;
79005;SDS011;69202;45.498;-73.582;2023-07-31T04:03:24;2.97;;;2.50;;
79005;SDS011;69202;45.498;-73.582;2023-07-31T04:05:50;3.20;;;2.35;;
79005;SDS011;69202;45.498;-73.582;2023-07-31T04:08:16;2.30;;;2.00;;
79005;SDS011;69202;45.498;-73.582;2023-07-31T04:10:42;2.55;;;2.35;;
79005;SDS011;69202;45.498;-73.582;2023-07-31T04:13:07;2.67;;;2.10;;
79005;SDS011;69202;45.498;-73.582;2023-07-31T04:15:33;3.03;;;2.30;;
79005;SDS011;69202;45.498;-73.582;2023-07-31T04:17:59;2.20;;;2.00;;
79005;SDS011;69202;45.498;-73.582;2023-07-31T04:20:25;2.78;;;2.00;;
79005;SDS011;69202;45.498;-73.582;2023-07-31T04:22:51;2.38;;;2.10;;
79005;SDS011;69202;45.498;-73.582;2023-07-31T04:25:17;2.28;;;2.05;;
79005;SDS011;69202;45.498;-73.582;2023-07-31T04:27:43;2.63;;;2.10;;
79005;SDS011;69202;45.498;-73.582;2023-07-31T04:30:09;2.47;;;1.80;;
79005;SDS011;69202;45.498;-73.582;2023-07-31T04:32:35;2.13;;;1.90;;
79005;SDS011;69202;45.498;-73.582;2023-07-31T04:35:01;2.70;;;1.88;;
79005;SDS011;69202;45.498;-73.582;2023-07-31T04:37:27;2.10;;;1.90;;
79005;SDS011;69202;45.498;-73.582;2023-07-31T04:39:53;3.33;;;1.90;;
79005;SDS011;69202;45.498;-73.582;2023-07-31T04:42:19;2.13;;;1.90;;
79005;SDS011;69202;45.498;-73.582;2023-07-31T04:44:45;1.98;;;1.80;;
79005;SDS011;69202;45.498;-73.582;2023-07-31T04:47:11;3.15;;;2.00;;
79005;SDS011;69202;45.498;-73.582;2023-07-31T04:49:37;2.05;;;1.85;;
79005;SDS011;69202;45.498;-73.582;2023-07-31T04:52:03;2.72;;;1.90;;
79005;SDS011;69202;45.498;-73.582;2023-07-31T04:54:29;2.20;;;2.00;;
79005;SDS011;69202;45.498;-73.582;2023-07-31T04:56:55;2.30;;;2.00;;
79005;SDS011;69202;45.498;-73.582;2023-07-31T04:59:21;2.00;;;1.70;;
79005;SDS011;69202;45.498;-73.582;2023-07-31T05:01:47;1.90;;;1.70;;
79005;SDS011;69202;45.498;-73.582;2023-07-31T05:04:13;2.20;;;1.80;;
79005;SDS011;69202;45.498;-73.582;2023-07-31T05:06:40;2.40;;;2.13;;
79005;SDS011;69202;45.498;-73.582;2023-07-31T05:09:06;2.00;;;1.80;;
79005;SDS011;69202;45.498;-73.582;2023-07-31T05:11:32;1.70;;;1.60;;
79005;SDS011;69202;45.498;-73.582;2023-07-31T05:13:58;1.98;;;1.77;;
79005;SDS011;69202;45.498;-73.582;2023-07-31T05:16:24;2.55;;;1.90;;
79005;SDS011;69202;45.498;-73.582;2023-07-31T05:18:50;2.17;;;1.80;;
79005;SDS011;69202;45.498;-73.582;2023-07-31T05:21:16;1.67;;;1.58;;
79005;SDS011;69202;45.498;-73.582;2023-07-31T05:23:41;2.35;;;1.83;;
79005;SDS011;69202;45.498;-73.582;2023-07-31T05:26:08;2.08;;;1.67;;
79005;SDS011;69202;45.498;-73.582;2023-07-31T05:28:37;2.50;;;2.05;;
79005;SDS011;69202;45.498;-73.582;2023-07-31T05:31:03;2.65;;;1.92;;
79005;SDS011;69202;45.498;-73.582;2023-07-31T05:33:30;3.15;;;2.33;;
79005;SDS011;69202;45.498;-73.582;2023-07-31T05:35:56;2.22;;;2.00;;
79005;SDS011;69202;45.498;-73.582;2023-07-31T05:38:22;2.08;;;1.65;;
79005;SDS011;69202;45.498;-73.582;2023-07-31T05:40:48;2.22;;;1.90;;
79005;SDS011;69202;45.498;-73.582;2023-07-31T05:43:14;3.47;;;2.03;;
79005;SDS011;69202;45.498;-73.582;2023-07-31T05:45:43;2.33;;;1.80;;
79005;SDS011;69202;45.498;-73.582;2023-07-31T05:48:09;2.50;;;1.85;;
79005;SDS011;69202;45.498;-73.582;2023-07-31T05:50:35;3.97;;;2.58;;
79005;SDS011;69202;45.498;-73.582;2023-07-31T05:53:04;3.22;;;2.20;;
79005;SDS011;69202;45.498;-73.582;2023-07-31T05:55:30;2.80;;;2.08;;
79005;SDS011;69202;45.498;-73.582;2023-07-31T05:57:56;2.63;;;1.88;;
79005;SDS011;69202;45.498;-73.582;2023-07-31T06:00:22;3.13;;;1.75;;
79005;SDS011;69202;45.498;-73.582;2023-07-31T06:02:48;3.55;;;1.95;;
79005;SDS011;69202;45.498;-73.582;2023-07-31T06:05:14;2.08;;;1.90;;
79005;SDS011;69202;45.498;-73.582;2023-07-31T06:07:40;1.98;;;1.67;;
79005;SDS011;69202;45.498;-73.582;2023-07-31T06:10:09;3.53;;;1.90;;
79005;SDS011;69202;45.498;-73.582;2023-07-31T06:12:35;2.08;;;1.88;;
79005;SDS011;69202;45.498;-73.582;2023-07-31T06:15:02;2.40;;;1.67;;
79005;SDS011;69202;45.498;-73.582;2023-07-31T06:17:28;2.05;;;1.85;;
79005;SDS011;69202;45.498;-73.582;2023-07-31T06:19:56;3.13;;;1.88;;
79005;SDS011;69202;45.498;-73.582;2023-07-31T06:22:22;2.45;;;2.17;;
79005;SDS011;69202;45.498;-73.582;2023-07-31T06:24:48;3.90;;;1.98;;
79005;SDS011;69202;45.498;-73.582;2023-07-31T06:27:14;2.22;;;2.00;;
79005;SDS011;69202;45.498;-73.582;2023-07-31T06:29:40;3.60;;;2.05;;
79005;SDS011;69202;45.498;-73.582;2023-07-31T06:32:06;2.30;;;2.10;;
79005;SDS011;69202;45.498;-73.582;2023-07-31T06:34:32;2.20;;;1.85;;
79005;SDS011;69202;45.498;-73.582;2023-07-31T06:36:58;2.00;;;1.77;;
79005;SDS011;69202;45.498;-73.582;2023-07-31T06:39:24;2.00;;;1.80;;
79005;SDS011;69202;45.498;-73.582;2023-07-31T06:41:50;2.30;;;1.60;;
79005;SDS011;69202;45.498;-73.582;2023-07-31T06:44:16;2.25;;;1.90;;
79005;SDS011;69202;45.498;-73.582;2023-07-31T06:46:42;2.05;;;1.70;;
79005;SDS011;69202;45.498;-73.582;2023-07-31T06:49:08;1.95;;;1.50;;
79005;SDS011;69202;45.498;-73.582;2023-07-31T06:51:34;2.25;;;1.98;;
79005;SDS011;69202;45.498;-73.582;2023-07-31T06:54:01;3.75;;;2.55;;
79005;SDS011;69202;45.498;-73.582;2023-07-31T06:56:27;2.67;;;1.90;;
79005;SDS011;69202;45.498;-73.582;2023-07-31T06:58:52;2.58;;;2.17;;
79005;SDS011;69202;45.498;-73.582;2023-07-31T07:01:18;2.42;;;1.67;;
79005;SDS011;69202;45.498;-73.582;2023-07-31T07:03:44;2.25;;;1.90;;
79005;SDS011;69202;45.498;-73.582;2023-07-31T07:06:10;2.45;;;2.22;;
79005;SDS011;69202;45.498;-73.582;2023-07-31T07:08:36;2.20;;;1.85;;
79005;SDS011;69202;45.498;-73.582;2023-07-31T07:11:02;2.78;;;2.17;;
79005;SDS011;69202;45.498;-73.582;2023-07-31T07:13:28;3.55;;;1.92;;
79005;SDS011;69202;45.498;-73.582;2023-07-31T07:15:54;2.47;;;1.75;;
79005;SDS011;69202;45.498;-73.582;2023-07-31T07:18:20;2.17;;;1.65;;
79005;SDS011;69202;45.498;-73.582;2023-07-31T07:20:50;2.50;;;1.90;;
79005;SDS011;69202;45.498;-73.582;2023-07-31T07:23:17;2.10;;;1.80;;
79005;SDS011;69202;45.498;-73.582;2023-07-31T07:25:43;2.03;;;1.83;;
79005;SDS011;69202;45.498;-73.582;2023-07-31T07:28:10;2.83;;;1.90;;
79005;SDS011;69202;45.498;-73.582;2023-07-31T07:30:36;2.35;;;1.80;;
79005;SDS011;69202;45.498;-73.582;2023-07-31T07:33:02;2.58;;;2.25;;
79005;SDS011;69202;45.498;-73.582;2023-07-31T07:35:28;4.20;;;2.00;;
79005;SDS011;69202;45.498;-73.582;2023-07-31T07:37:54;2.33;;;2.13;;
79005;SDS011;69202;45.498;-73.582;2023-07-31T07:40:20;3.53;;;2.30;;
79005;SDS011;69202;45.498;-73.582;2023-07-31T07:42:46;3.00;;;2.42;;
79005;SDS011;69202;45.498;-73.582;2023-07-31T07:45:12;2.35;;;1.90;;
79005;SDS011;69202;45.498;-73.582;2023-07-31T07:47:41;3.10;;;2.42;;
79005;SDS011;69202;45.498;-73.582;2023-07-31T07:50:07;2.67;;;2.00;;
79005;SDS011;69202;45.498;-73.582;2023-07-31T07:52:34;2.40;;;2.08;;
79005;SDS011;69202;45.498;-73.582;2023-07-31T07:55:00;3.30;;;2.00;;
79005;SDS011;69202;45.498;-73.582;2023-07-31T07:57:26;2.20;;;2.00;;
79005;SDS011;69202;45.498;-73.582;2023-07-31T07:59:52;5.38;;;2.15;;
79005;SDS011;69202;45.498;-73.582;2023-07-31T08:02:18;3.33;;;2.35;;
79005;SDS011;69202;45.498;-73.582;2023-07-31T08:04:44;2.45;;;2.25;;
79005;SDS011;69202;45.498;-73.582;2023-07-31T08:07:12;2.67;;;2.20;;
79005;SDS011;69202;45.498;-73.582;2023-07-31T08:09:39;3.90;;;2.30;;
79005;SDS011;69202;45.498;-73.582;2023-07-31T08:12:05;2.67;;;2.38;;
79005;SDS011;69202;45.498;-73.582;2023-07-31T08:14:32;3.05;;;2.75;;
79005;SDS011;69202;45.498;-73.582;2023-07-31T08:16:58;3.35;;;2.53;;
79005;SDS011;69202;45.498;-73.582;2023-07-31T08:19:24;2.50;;;2.30;;
79005;SDS011;69202;45.498;-73.582;2023-07-31T08:21:50;2.13;;;1.92;;
79005;SDS011;69202;45.498;-73.582;2023-07-31T08:24:16;2.58;;;2.22;;
79005;SDS011;69202;45.498;-73.582;2023-07-31T08:26:42;2.10;;;1.90;;
79005;SDS011;69202;45.498;-73.582;2023-07-31T08:29:08;3.08;;;2.15;;
79005;SDS011;69202;45.498;-73.582;2023-07-31T08:31:34;3.08;;;2.38;;
79005;SDS011;69202;45.498;-73.582;2023-07-31T08:34:00;2.22;;;1.95;;
79005;SDS011;69202;45.498;-73.582;2023-07-31T08:36:26;2.33;;;2.13;;
79005;SDS011;69202;45.498;-73.582;2023-07-31T08:38:52;2.95;;;2.03;;
79005;SDS011;69202;45.498;-73.582;2023-07-31T08:41:18;2.15;;;1.70;;
79005;SDS011;69202;45.498;-73.582;2023-07-31T08:43:48;2.10;;;1.88;;
79005;SDS011;69202;45.498;-73.582;2023-07-31T08:46:15;2.15;;;1.95;;
79005;SDS011;69202;45.498;-73.582;2023-07-31T08:48:42;2.00;;;1.80;;
79005;SDS011;69202;45.498;-73.582;2023-07-31T08:51:09;2.40;;;2.20;;
79005;SDS011;69202;45.498;-73.582;2023-07-31T08:53:35;2.50;;;2.10;;
79005;SDS011;69202;45.498;-73.582;2023-07-31T08:56:01;2.38;;;1.98;;
79005;SDS011;69202;45.498;-73.582;2023-07-31T08:58:31;2.28;;;1.88;;
79005;SDS011;69202;45.498;-73.582;2023-07-31T09:00:58;3.80;;;1.90;;
79005;SDS011;69202;45.498;-73.582;2023-07-31T09:03:28;2.72;;;1.98;;
79005;SDS011;69202;45.498;-73.582;2023-07-31T09:06:02;2.53;;;2.10;;
79005;SDS011;69202;45.498;-73.582;2023-07-31T09:08:31;2.65;;;2.30;;
79005;SDS011;69202;45.498;-73.582;2023-07-31T09:11:00;2.58;;;2.20;;
79005;SDS011;69202;45.498;-73.582;2023-07-31T09:13:31;2.38;;;1.90;;
79005;SDS011;69202;45.498;-73.582;2023-07-31T09:15:57;2.30;;;2.10;;
79005;SDS011;69202;45.498;-73.582;2023-07-31T09:18:24;3.80;;;2.80;;
79005;SDS011;69202;45.498;-73.582;2023-07-31T09:21:03;2.67;;;1.92;;
79005;SDS011;69202;45.498;-73.582;2023-07-31T09:23:43;2.38;;;2.00;;
79005;SDS011;69202;45.498;-73.582;2023-07-31T09:26:10;2.65;;;2.20;;
79005;SDS011;69202;45.498;-73.582;2023-07-31T09:28:36;2.05;;;1.80;;
79005;SDS011;69202;45.498;-73.582;2023-07-31T09:31:02;3.47;;;2.20;;
79005;SDS011;69202;45.498;-73.582;2023-07-31T09:33:28;2.20;;;1.90;;
79005;SDS011;69202;45.498;-73.582;2023-07-31T09:35:58;2.65;;;1.88;;
79005;SDS011;69202;45.498;-73.582;2023-07-31T09:38:25;3.45;;;2.22;;
79005;SDS011;69202;45.498;-73.582;2023-07-31T09:40:51;2.47;;;2.17;;
79005;SDS011;69202;45.498;-73.582;2023-07-31T09:43:19;2.40;;;2.20;;
79005;SDS011;69202;45.498;-73.582;2023-07-31T09:45:46;4.13;;;2.60;;
79005;SDS011;69202;45.498;-73.582;2023-07-31T09:48:16;2.25;;;2.05;;
79005;SDS011;69202;45.498;-73.582;2023-07-31T09:50:48;2.30;;;1.90;;
79005;SDS011;69202;45.498;-73.582;2023-07-31T09:53:15;3.00;;;2.08;;
79005;SDS011;69202;45.498;-73.582;2023-07-31T09:55:44;2.85;;;2.00;;
79005;SDS011;69202;45.498;-73.582;2023-07-31T09:58:10;2.30;;;2.10;;
79005;SDS011;69202;45.498;-73.582;2023-07-31T10:00:38;2.35;;;2.13;;
79005;SDS011;69202;45.498;-73.582;2023-07-31T10:03:05;2.50;;;2.00;;
79005;SDS011;69202;45.498;-73.582;2023-07-31T10:05:42;3.05;;;2.00;;
79005;SDS011;69202;45.498;-73.582;2023-07-31T10:08:15;2.20;;;1.95;;
79005;SDS011;69202;45.498;-73.582;2023-07-31T10:10:43;3.97;;;2.30;;
79005;SDS011;69202;45.498;-73.582;2023-07-31T10:13:09;2.28;;;2.08;;
79005;SDS011;69202;45.498;-73.582;2023-07-31T10:15:36;3.05;;;2.00;;
79005;SDS011;69202;45.498;-73.582;2023-07-31T10:18:02;1.80;;;1.70;;
79005;SDS011;69202;45.498;-73.582;2023-07-31T10:20:31;2.55;;;2.30;;
79005;SDS011;69202;45.498;-73.582;2023-07-31T10:22:58;2.58;;;2.08;;
79005;SDS011;69202;45.498;-73.582;2023-07-31T10:25:28;3.17;;;2.30;;
79005;SDS011;69202;45.498;-73.582;2023-07-31T10:27:55;2.60;;;2.40;;
79005;SDS011;69202;45.498;-73.582;2023-07-31T10:30:25;4.72;;;2.42;;
79005;SDS011;69202;45.498;-73.582;2023-07-31T10:32:54;2.58;;;2.30;;
79005;SDS011;69202;45.498;-73.582;2023-07-31T10:35:21;2.10;;;1.90;;
79005;SDS011;69202;45.498;-73.582;2023-07-31T10:37:50;1.90;;;1.80;;
79005;SDS011;69202;45.498;-73.582;2023-07-31T10:40:18;2.15;;;1.95;;
79005;SDS011;69202;45.498;-73.582;2023-07-31T10:42:49;2.75;;;2.40;;
79005;SDS011;69202;45.498;-73.582;2023-07-31T10:45:30;2.78;;;2.47;;
79005;SDS011;69202;45.498;-73.582;2023-07-31T10:48:04;2.47;;;1.95;;
79005;SDS011;69202;45.498;-73.582;2023-07-31T10:50:32;3.13;;;2.00;;
79005;SDS011;69202;45.498;-73.582;2023-07-31T10:53:02;2.90;;;2.00;;
79005;SDS011;69202;45.498;-73.582;2023-07-31T10:55:32;5.68;;;2.47;;
79005;SDS011;69202;45.498;-73.582;2023-07-31T10:58:08;3.03;;;2.17;;
79005;SDS011;69202;45.498;-73.582;2023-07-31T11:00:34;4.10;;;2.10;;
79005;SDS011;69202;45.498;-73.582;2023-07-31T11:03:04;2.40;;;2.17;;
79005;SDS011;69202;45.498;-73.582;2023-07-31T11:08:30;2.50;;;2.08;;
79005;SDS011;69202;45.498;-73.582;2023-07-31T11:15:59;3.90;;;2.20;;
79005;SDS011;69202;45.498;-73.582;2023-07-31T11:18:26;3.55;;;2.08;;
79005;SDS011;69202;45.498;-73.582;2023-07-31T11:20:52;2.55;;;2.25;;
79005;SDS011;69202;45.498;-73.582;2023-07-31T11:23:19;5.00;;;2.30;;
79005;SDS011;69202;45.498;-73.582;2023-07-31T11:25:45;3.53;;;2.13;;
79005;SDS011;69202;45.498;-73.582;2023-07-31T11:28:12;3.03;;;1.77;;
79005;SDS011;69202;45.498;-73.582;2023-07-31T11:30:39;3.13;;;2.22;;
79005;SDS011;69202;45.498;-73.582;2023-07-31T11:33:06;3.00;;;2.05;;
79005;SDS011;69202;45.498;-73.582;2023-07-31T11:35:34;3.45;;;2.33;;
79005;SDS011;69202;45.498;-73.582;2023-07-31T11:38:07;2.75;;;2.20;;
79005;SDS011;69202;45.498;-73.582;2023-07-31T11:40:42;3.28;;;2.03;;
79005;SDS011;69202;45.498;-73.582;2023-07-31T11:43:09;2.78;;;2.17;;
79005;SDS011;69202;45.498;-73.582;2023-07-31T11:45:44;4.05;;;2.33;;
79005;SDS011;69202;45.498;-73.582;2023-07-31T11:50:49;3.25;;;2.30;;
79005;SDS011;69202;45.498;-73.582;2023-07-31T11:53:17;3.15;;;2.65;;
79005;SDS011;69202;45.498;-73.582;2023-07-31T11:55:48;2.53;;;2.10;;
79005;SDS011;69202;45.498;-73.582;2023-07-31T11:58:15;2.20;;;2.00;;
79005;SDS011;69202;45.498;-73.582;2023-07-31T12:00:43;2.95;;;2.60;;
79005;SDS011;69202;45.498;-73.582;2023-07-31T12:03:09;2.30;;;2.03;;
79005;SDS011;69202;45.498;-73.582;2023-07-31T12:05:36;2.13;;;1.92;;
79005;SDS011;69202;45.498;-73.582;2023-07-31T12:08:08;2.15;;;1.95;;
79005;SDS011;69202;45.498;-73.582;2023-07-31T12:10:38;2.50;;;2.00;;
79005;SDS011;69202;45.498;-73.582;2023-07-31T12:13:12;2.20;;;2.00;;
79005;SDS011;69202;45.498;-73.582;2023-07-31T12:15:46;4.13;;;2.10;;
79005;SDS011;69202;45.498;-73.582;2023-07-31T12:18:21;2.60;;;2.25;;
79005;SDS011;69202;45.498;-73.582;2023-07-31T12:20:48;3.40;;;2.28;;
79005;SDS011;69202;45.498;-73.582;2023-07-31T12:23:20;3.50;;;2.17;;
79005;SDS011;69202;45.498;-73.582;2023-07-31T12:26:03;4.28;;;2.65;;
79005;SDS011;69202;45.498;-73.582;2023-07-31T12:28:49;3.10;;;2.53;;
79005;SDS011;69202;45.498;-73.582;2023-07-31T12:31:16;4.07;;;2.10;;
79005;SDS011;69202;45.498;-73.582;2023-07-31T12:33:44;5.10;;;2.40;;
79005;SDS011;69202;45.498;-73.582;2023-07-31T12:36:15;3.65;;;2.47;;
79005;SDS011;69202;45.498;-73.582;2023-07-31T12:38:43;5.85;;;2.47;;
79005;SDS011;69202;45.498;-73.582;2023-07-31T12:41:10;2.35;;;2.03;;
79005;SDS011;69202;45.498;-73.582;2023-07-31T12:43:37;2.83;;;2.10;;
79005;SDS011;69202;45.498;-73.582;2023-07-31T12:46:05;4.20;;;2.40;;
79005;SDS011;69202;45.498;-73.582;2023-07-31T12:48:33;4.30;;;2.65;;
79005;SDS011;69202;45.498;-73.582;2023-07-31T12:50:59;4.18;;;2.47;;
79005;SDS011;69202;45.498;-73.582;2023-07-31T12:53:25;4.80;;;2.72;;
79005;SDS011;69202;45.498;-73.582;2023-07-31T12:55:52;5.20;;;2.80;;
79005;SDS011;69202;45.498;-73.582;2023-07-31T12:58:18;3.15;;;2.47;;
79005;SDS011;69202;45.498;-73.582;2023-07-31T13:00:44;3.83;;;2.58;;
79005;SDS011;69202;45.498;-73.582;2023-07-31T13:03:10;4.53;;;2.58;;
79005;SDS011;69202;45.498;-73.582;2023-07-31T13:05:36;3.60;;;2.60;;
79005;SDS011;69202;45.498;-73.582;2023-07-31T13:08:02;3.53;;;2.45;;
79005;SDS011;69202;45.498;-73.582;2023-07-31T13:10:28;3.35;;;2.40;;
79005;SDS011;69202;45.498;-73.582;2023-07-31T13:12:55;3.85;;;2.53;;
79005;SDS011;69202;45.498;-73.582;2023-07-31T13:15:21;4.55;;;2.45;;
79005;SDS011;69202;45.498;-73.582;2023-07-31T13:17:48;5.25;;;3.00;;
79005;SDS011;69202;45.498;-73.582;2023-07-31T13:20:14;4.22;;;2.50;;
79005;SDS011;69202;45.498;-73.582;2023-07-31T13:22:40;3.67;;;2.47;;
79005;SDS011;69202;45.498;-73.582;2023-07-31T13:25:06;3.10;;;2.55;;
79005;SDS011;69202;45.498;-73.582;2023-07-31T13:27:33;4.15;;;2.53;;
79005;SDS011;69202;45.498;-73.582;2023-07-31T13:29:59;3.78;;;2.70;;
79005;SDS011;69202;45.498;-73.582;2023-07-31T13:32:25;2.83;;;2.60;;
79005;SDS011;69202;45.498;-73.582;2023-07-31T13:34:51;3.72;;;2.83;;
79005;SDS011;69202;45.498;-73.582;2023-07-31T13:37:17;4.72;;;2.72;;
79005;SDS011;69202;45.498;-73.582;2023-07-31T13:39:43;4.35;;;2.92;;
79005;SDS011;69202;45.498;-73.582;2023-07-31T13:42:09;3.88;;;2.80;;
79005;SDS011;69202;45.498;-73.582;2023-07-31T13:44:37;3.00;;;2.70;;
79005;SDS011;69202;45.498;-73.582;2023-07-31T13:47:04;2.92;;;2.40;;
79005;SDS011;69202;45.498;-73.582;2023-07-31T13:49:30;3.30;;;2.83;;
79005;SDS011;69202;45.498;-73.582;2023-07-31T13:51:56;3.40;;;2.85;;
79005;SDS011;69202;45.498;-73.582;2023-07-31T13:54:23;3.90;;;3.10;;
79005;SDS011;69202;45.498;-73.582;2023-07-31T13:56:49;4.63;;;2.72;;
79005;SDS011;69202;45.498;-73.582;2023-07-31T13:59:15;3.85;;;2.78;;
79005;SDS011;69202;45.498;-73.582;2023-07-31T14:01:42;4.43;;;2.90;;
79005;SDS011;69202;45.498;-73.582;2023-07-31T14:04:11;3.75;;;3.00;;
79005;SDS011;69202;45.498;-73.582;2023-07-31T14:06:38;2.80;;;2.50;;
79005;SDS011;69202;45.498;-73.582;2023-07-31T14:09:04;3.40;;;3.10;;
79005;SDS011;69202;45.498;-73.582;2023-07-31T14:11:30;4.07;;;2.97;;
79005;SDS011;69202;45.498;-73.582;2023-07-31T14:13:57;3.65;;;2.75;;
79005;SDS011;69202;45.498;-73.582;2023-07-31T14:16:23;3.67;;;2.90;;
79005;SDS011;69202;45.498;-73.582;2023-07-31T14:18:49;3.65;;;2.78;;
79005;SDS011;69202;45.498;-73.582;2023-07-31T14:21:15;3.42;;;2.50;;
79005;SDS011;69202;45.498;-73.582;2023-07-31T14:23:41;5.22;;;3.50;;
79005;SDS011;69202;45.498;-73.582;2023-07-31T14:26:07;2.78;;;2.33;;
79005;SDS011;69202;45.498;-73.582;2023-07-31T14:28:33;3.78;;;3.10;;
79005;SDS011;69202;45.498;-73.582;2023-07-31T14:30:59;3.40;;;2.70;;
79005;SDS011;69202;45.498;-73.582;2023-07-31T14:33:26;3.22;;;2.70;;
79005;SDS011;69202;45.498;-73.582;2023-07-31T14:35:52;4.60;;;2.50;;
79005;SDS011;69202;45.498;-73.582;2023-07-31T14:38:18;3.58;;;2.72;;